Time;durP1;ratioP1;P1;durP2;ratioP2;P2;SDS_P1;SDS_P2;PMS_P1;PMS_P2;Temp;Humidity;BMP_temperature;BMP_pressure;BME280_temperature;BME280_humidity;BME280_pressure;Samples;Min_cycle;Max_cycle;Signal;HPM_P1;HPM_P2
2023/10/22 00:00:13;;;;;;;;;2.67;2.00;;;;;14.96;100.00;99633.22;4997320;28;45890;-82
2023/10/22 00:02:39;;;;;;;;;4.00;1.33;;;;;14.96;100.00;99632.41;5012164;28;45384;-82
2023/10/22 00:05:05;;;;;;;;;3.00;0.67;;;;;15.01;100.00;99643.47;5009080;28;45743;-81
2023/10/22 00:07:34;;;;;;;;;3.00;0.67;;;;;14.99;100.00;99651.22;5008251;28;45258;-83
2023/10/22 00:10:00;;;;;;;;;4.33;3.33;;;;;14.97;100.00;99639.56;4993406;28;47228;-83
2023/10/22 00:12:26;;;;;;;;;3.67;3.33;;;;;15.04;100.00;99664.22;5004868;28;45678;-82
2023/10/22 00:14:52;;;;;;;;;0.67;0.67;;;;;15.02;100.00;99664.47;4998356;28;45840;-81
2023/10/22 00:17:17;;;;;;;;;3.00;1.00;;;;;15.05;100.00;99668.66;4985471;28;46360;-82
2023/10/22 00:19:43;;;;;;;;;2.67;2.00;;;;;15.00;100.00;99661.97;4971964;28;46903;-81
2023/10/22 00:22:09;;;;;;;;;3.00;2.67;;;;;14.99;100.00;99670.53;4984780;28;45743;-81
2023/10/22 00:24:34;;;;;;;;;3.00;1.00;;;;;14.93;100.00;99660.56;4985118;28;45555;-84
2023/10/22 00:27:00;;;;;;;;;7.67;1.00;;;;;15.03;100.00;99676.34;5008046;28;44882;-84
2023/10/22 00:29:26;;;;;;;;;2.00;2.00;;;;;15.05;100.00;99679.69;5005761;28;45771;-85
2023/10/22 00:31:52;;;;;;;;;5.67;3.33;;;;;15.08;100.00;99682.75;4986943;28;45144;-86
2023/10/22 00:34:17;;;;;;;;;2.00;2.00;;;;;14.98;100.00;99669.72;4988203;28;45068;-81
2023/10/22 00:36:44;;;;;;;;;5.00;1.67;;;;;14.89;100.00;99662.16;4993449;28;46414;-81
2023/10/22 00:39:10;;;;;;;;;2.67;0.67;;;;;15.03;100.00;99692.91;4984224;28;46667;-80
2023/10/22 00:41:36;;;;;;;;;4.00;2.33;;;;;15.05;100.00;99701.78;5005660;28;44852;-82
2023/10/22 00:44:01;;;;;;;;;1.33;0.00;;;;;15.02;100.00;99680.22;4996729;28;44873;-82
2023/10/22 00:46:27;;;;;;;;;3.33;2.67;;;;;15.07;100.00;99697.63;4991942;28;45768;-87
2023/10/22 00:48:55;;;;;;;;;4.67;2.00;;;;;14.96;100.00;99682.94;4964373;28;47039;-86
2023/10/22 00:51:22;;;;;;;;;1.33;1.00;;;;;15.09;100.00;99698.22;4968398;28;45508;-85
2023/10/22 00:53:50;;;;;;;;;6.33;2.00;;;;;15.08;100.00;99704.00;4991708;28;45788;-85
2023/10/22 00:56:15;;;;;;;;;1.33;0.67;;;;;14.89;100.00;99671.28;4975974;28;45528;-88
2023/10/22 00:58:42;;;;;;;;;2.00;2.00;;;;;15.09;100.00;99702.91;4981346;28;45463;-87
2023/10/22 01:01:12;;;;;;;;;4.67;3.00;;;;;15.11;100.00;99714.53;4978205;28;45879;-87
2023/10/22 01:03:39;;;;;;;;;3.00;2.00;;;;;14.88;100.00;99675.16;4991245;28;45558;-87
2023/10/22 01:06:05;;;;;;;;;2.00;1.67;;;;;15.06;100.00;99708.94;4979708;28;45702;-88
2023/10/22 01:08:36;;;;;;;;;4.00;1.00;;;;;15.12;100.00;99716.16;4994918;28;45491;-86
2023/10/22 01:11:10;;;;;;;;;3.33;2.33;;;;;15.11;100.00;99715.34;4981153;28;44932;-82
2023/10/22 01:13:37;;;;;;;;;4.00;2.67;;;;;14.90;100.00;99694.22;4995423;28;45349;-87
2023/10/22 01:16:08;;;;;;;;;5.00;2.00;;;;;15.10;100.00;99715.63;5006793;28;45539;-85
2023/10/22 01:18:33;;;;;;;;;6.33;4.33;;;;;15.11;100.00;99728.34;4984295;28;47153;-82
2023/10/22 01:20:59;;;;;;;;;4.33;1.67;;;;;15.13;100.00;99731.66;4990184;28;45994;-83
2023/10/22 01:23:28;;;;;;;;;1.67;1.67;;;;;15.11;100.00;99734.69;4978475;28;45176;-81
2023/10/22 01:25:53;;;;;;;;;2.00;2.00;;;;;14.91;100.00;99698.63;5003004;28;46329;-81
2023/10/22 01:28:19;;;;;;;;;4.00;0.67;;;;;15.04;100.00;99728.53;4974422;28;45882;-85
2023/10/22 01:30:44;;;;;;;;;2.00;2.00;;;;;15.05;100.00;99726.63;5005608;28;45353;-87
2023/10/22 01:33:10;;;;;;;;;1.00;1.00;;;;;15.04;100.00;99727.72;5003533;28;45673;-85
2023/10/22 01:35:37;;;;;;;;;2.00;2.00;;;;;15.14;100.00;99744.38;4995278;28;45542;-86
2023/10/22 01:38:02;;;;;;;;;3.00;2.00;;;;;15.13;100.00;99748.22;5002313;28;46852;-86
2023/10/22 01:40:28;;;;;;;;;1.33;1.33;;;;;15.09;100.00;99747.06;5011036;28;44873;-80
2023/10/22 01:42:54;;;;;;;;;5.33;3.00;;;;;15.04;100.00;99738.75;4991905;28;45979;-82
2023/10/22 01:45:20;;;;;;;;;4.00;4.00;;;;;15.13;100.00;99742.69;4989827;28;46284;-80
2023/10/22 01:47:46;;;;;;;;;3.00;2.00;;;;;15.00;100.00;99730.19;4964776;28;47134;-82
2023/10/22 01:50:12;;;;;;;;;2.00;1.00;;;;;14.99;100.00;99726.56;4984566;28;45396;-85
2023/10/22 01:52:37;;;;;;;;;5.33;1.00;;;;;14.91;100.00;99724.31;4993463;28;45531;-82
2023/10/22 01:55:03;;;;;;;;;2.67;1.00;;;;;14.83;100.00;99705.47;4988542;28;45598;-81
2023/10/22 01:57:29;;;;;;;;;2.00;2.00;;;;;15.08;100.00;99749.03;4972603;28;46960;-87
2023/10/22 01:59:55;;;;;;;;;1.67;1.33;;;;;14.99;100.00;99747.84;4978997;28;45441;-86
2023/10/22 02:02:20;;;;;;;;;6.00;3.00;;;;;15.10;100.00;99766.16;4972410;28;45867;-81
2023/10/22 02:04:46;;;;;;;;;8.00;3.00;;;;;14.97;100.00;99755.53;4973112;28;45555;-85
2023/10/22 02:07:12;;;;;;;;;2.00;0.67;;;;;15.06;100.00;99764.19;4987279;28;47912;-81
2023/10/22 02:09:37;;;;;;;;;2.33;1.67;;;;;15.05;100.00;99768.06;4983287;28;45692;-81
2023/10/22 02:12:05;;;;;;;;;5.00;1.00;;;;;15.03;100.00;99770.22;4983778;28;46291;-82
2023/10/22 02:14:38;;;;;;;;;4.33;1.00;;;;;14.94;100.00;99767.97;4980894;28;45584;-86
2023/10/22 02:17:04;;;;;;;;;2.00;1.00;;;;;14.92;100.00;99767.38;4976533;28;47095;-79
2023/10/22 02:19:29;;;;;;;;;2.00;2.00;;;;;14.98;100.00;99773.78;4972554;28;46191;-84
2023/10/22 02:21:55;;;;;;;;;1.67;1.00;;;;;14.97;100.00;99777.63;4984854;28;45520;-86
2023/10/22 02:24:20;;;;;;;;;8.00;2.00;;;;;14.99;100.00;99780.97;4990054;28;44885;-82
2023/10/22 02:26:47;;;;;;;;;5.67;2.67;;;;;14.99;100.00;99781.81;4969887;28;47585;-81
2023/10/22 02:29:13;;;;;;;;;3.67;3.00;;;;;14.94;100.00;99784.53;4969956;28;45869;-82
2023/10/22 02:31:39;;;;;;;;;3.33;2.00;;;;;14.87;100.00;99775.63;4981777;28;45475;-81
2023/10/22 02:34:07;;;;;;;;;3.00;0.67;;;;;14.79;100.00;99770.56;4979599;28;45563;-81
2023/10/22 02:36:34;;;;;;;;;4.00;3.00;;;;;14.95;100.00;99802.72;4971128;28;47530;-80
2023/10/22 02:39:00;;;;;;;;;2.00;0.00;;;;;14.90;100.00;99791.66;4990253;28;45724;-80
2023/10/22 02:41:26;;;;;;;;;4.00;1.67;;;;;14.78;100.00;99785.47;4967256;28;45706;-82
2023/10/22 02:43:52;;;;;;;;;2.33;1.67;;;;;14.72;100.00;99775.47;5001066;28;45793;-82
2023/10/22 02:46:17;;;;;;;;;4.67;1.67;;;;;14.77;100.00;99787.38;4979532;28;48579;-80
2023/10/22 02:48:42;;;;;;;;;5.00;1.00;;;;;14.82;100.00;99801.25;4986199;28;45488;-82
2023/10/22 02:51:08;;;;;;;;;2.00;2.00;;;;;14.90;100.00;99808.22;4994125;28;45578;-81
2023/10/22 02:53:33;;;;;;;;;2.67;1.33;;;;;14.91;100.00;99811.81;4980322;28;45820;-81
2023/10/22 02:56:02;;;;;;;;;0.67;0.67;;;;;14.83;100.00;99799.31;5007405;28;45436;-81
2023/10/22 02:58:31;;;;;;;;;4.00;2.67;;;;;14.91;100.00;99807.13;4989218;28;45881;-85
2023/10/22 03:01:17;;;;;;;;;5.00;1.00;;;;;14.87;100.00;99817.03;5006809;28;44802;-85
2023/10/22 03:03:43;;;;;;;;;2.00;2.00;;;;;14.89;100.00;99825.88;4999026;28;46363;-81
2023/10/22 03:06:11;;;;;;;;;4.67;1.00;;;;;14.70;100.00;99796.97;4980653;28;47012;-80
2023/10/22 03:08:39;;;;;;;;;3.67;2.00;;;;;14.74;100.00;99803.63;4996761;28;46164;-87
2023/10/22 03:11:05;;;;;;;;;1.33;1.00;;;;;14.90;100.00;99837.75;5009728;28;45267;-86
2023/10/22 03:13:32;;;;;;;;;2.33;2.00;;;;;14.91;100.00;99831.13;4971354;28;45488;-81
2023/10/22 03:16:06;;;;;;;;;3.00;2.00;;;;;14.67;100.00;99817.66;4997620;28;45788;-82
2023/10/22 03:18:32;;;;;;;;;3.00;1.67;;;;;14.88;100.00;99838.03;5004938;28;45661;-81
2023/10/22 03:20:57;;;;;;;;;0.67;0.67;;;;;14.53;100.00;99797.84;5000723;28;45741;-82
2023/10/22 03:23:23;;;;;;;;;3.00;2.33;;;;;14.79;100.00;99836.78;4983351;28;47110;-81
2023/10/22 03:25:48;;;;;;;;;5.00;2.00;;;;;14.79;100.00;99836.78;4984626;28;47127;-81
2023/10/22 03:28:14;;;;;;;;;3.00;1.00;;;;;14.71;100.00;99826.22;5012387;28;45381;-87
2023/10/22 03:30:39;;;;;;;;;2.00;2.00;;;;;14.82;100.00;99852.88;5003166;28;45320;-80
2023/10/22 03:33:08;;;;;;;;;4.33;1.00;;;;;14.71;100.00;99834.50;4973261;28;46250;-80
2023/10/22 03:35:35;;;;;;;;;4.33;1.00;;;;;14.74;100.00;99843.09;5017406;28;46477;-85
2023/10/22 03:38:02;;;;;;;;;4.00;1.00;;;;;14.83;100.00;99868.31;5028703;28;44839;-87
2023/10/22 03:40:28;;;;;;;;;1.00;1.00;;;;;14.61;100.00;99832.47;4998030;28;45491;-87
2023/10/22 03:42:54;;;;;;;;;3.00;1.00;;;;;14.62;100.00;99837.72;5001044;28;46398;-85
2023/10/22 03:45:20;;;;;;;;;1.00;1.00;;;;;14.68;100.00;99841.38;5008400;28;45484;-86
2023/10/22 03:47:45;;;;;;;;;3.00;1.00;;;;;14.82;100.00;99874.94;4999695;28;45497;-81
2023/10/22 03:50:11;;;;;;;;;1.67;1.00;;;;;14.64;100.00;99849.34;4983842;28;45776;-81
2023/10/22 03:52:36;;;;;;;;;2.67;0.00;;;;;14.62;100.00;99846.00;4983503;28;45640;-85
2023/10/22 03:55:04;;;;;;;;;4.00;2.00;;;;;14.82;100.00;99886.00;5000503;28;47112;-84
2023/10/22 03:57:30;;;;;;;;;2.00;1.00;;;;;14.64;100.00;99863.16;4992432;28;45558;-84
2023/10/22 03:59:55;;;;;;;;;3.67;2.67;;;;;14.72;100.00;99894.97;4975215;28;45713;-82
2023/10/22 04:02:21;;;;;;;;;2.00;1.00;;;;;14.49;100.00;99849.16;4978254;28;45912;-81
2023/10/22 04:04:46;;;;;;;;;8.33;3.00;;;;;14.77;100.00;99902.47;4971261;28;47502;-80
2023/10/22 04:07:12;;;;;;;;;2.00;1.00;;;;;14.64;100.00;99884.38;4993741;28;45393;-85
2023/10/22 04:09:38;;;;;;;;;1.00;1.00;;;;;14.69;100.00;99886.38;4989514;28;45416;-85
2023/10/22 04:12:04;;;;;;;;;4.00;1.33;;;;;14.62;100.00;99890.16;5004644;28;46261;-86
2023/10/22 04:14:34;;;;;;;;;1.33;1.00;;;;;14.75;100.00;99918.47;5008334;28;45393;-86
2023/10/22 04:16:59;;;;;;;;;2.00;1.00;;;;;14.61;100.00;99895.94;4984778;28;45587;-88
2023/10/22 04:19:25;;;;;;;;;1.33;1.00;;;;;14.57;100.00;99898.34;5010737;28;44832;-86
2023/10/22 04:21:50;;;;;;;;;2.00;0.00;;;;;14.68;100.00;99912.31;5002008;28;45576;-84
2023/10/22 04:24:16;;;;;;;;;2.00;2.00;;;;;14.68;100.00;99924.16;5004628;28;45433;-81
2023/10/22 04:26:42;;;;;;;;;1.33;1.00;;;;;14.58;100.00;99902.78;4994482;28;44913;-82
2023/10/22 04:29:08;;;;;;;;;6.33;1.67;;;;;14.78;100.00;99951.09;4978746;28;45845;-86
2023/10/22 04:31:34;;;;;;;;;2.00;0.00;;;;;14.41;100.00;99891.78;4982577;28;46090;-84
2023/10/22 04:33:59;;;;;;;;;5.00;1.00;;;;;14.62;100.00;99937.06;5000389;28;46513;-86
2023/10/22 04:36:25;;;;;;;;;1.67;0.00;;;;;14.81;100.00;99950.56;5009166;28;45299;-85
2023/10/22 04:38:50;;;;;;;;;1.33;0.33;;;;;14.83;100.00;99960.28;4991616;28;45585;-82
2023/10/22 04:41:16;;;;;;;;;0.00;0.00;;;;;14.77;100.00;99952.16;4969083;28;45908;-82
2023/10/22 04:43:42;;;;;;;;;1.67;1.67;;;;;14.67;100.00;99936.31;5006664;28;45637;-86
2023/10/22 04:46:07;;;;;;;;;1.00;0.67;;;;;14.82;100.00;99963.28;4996153;28;45552;-86
2023/10/22 04:48:33;;;;;;;;;2.67;1.33;;;;;14.69;100.00;99949.88;4977560;28;45647;-81
2023/10/22 04:51:06;;;;;;;;;3.00;0.33;;;;;14.70;100.00;99959.78;4976617;28;44910;-80
2023/10/22 04:53:35;;;;;;;;;2.00;2.00;;;;;14.64;100.00;99954.22;4965249;28;46963;-80
2023/10/22 04:56:01;;;;;;;;;2.67;1.67;;;;;14.70;100.00;99966.16;4985020;28;45498;-81
2023/10/22 04:58:28;;;;;;;;;2.00;2.00;;;;;14.81;100.00;99980.94;4991141;28;45349;-80
2023/10/22 05:00:55;;;;;;;;;1.00;1.00;;;;;14.63;100.00;99955.28;4980800;28;45988;-80
2023/10/22 05:03:25;;;;;;;;;1.33;1.33;;;;;14.69;100.00;99980.22;5013652;28;45879;-86
2023/10/22 05:06:20;;;;;;;;;4.00;2.33;;;;;14.62;100.00;99980.38;5008460;28;45732;-89
2023/10/22 05:10:10;;;;;;;;;5.67;1.00;;;;;14.66;100.00;99973.28;4990752;28;45538;-92
2023/10/22 05:12:28;;;;;;;;;2.67;1.00;;;;;14.79;100.00;100014.31;4996793;28;45097;-90
2023/10/22 05:15:08;;;;;;;;;3.67;0.67;;;;;14.61;100.00;99987.84;5002405;28;45424;-89
2023/10/22 05:18:05;;;;;;;;;;;;;;;;;;;;;
2023/10/22 05:21:25;;;;;;;;;1.67;0.67;;;;;14.59;100.00;99987.22;5014879;28;68015;-90
2023/10/22 05:25:00;;;;;;;;;;;;;;;;;;;;;
2023/10/22 05:27:31;;;;;;;;;2.00;2.00;;;;;14.53;100.00;99981.91;4995176;28;75341;-87
2023/10/22 05:31:02;;;;;;;;;;;;;;;;;;;;;
2023/10/22 05:33:28;;;;;;;;;2.67;2.00;;;;;14.33;100.00;99950.16;4985467;28;46054;-87
2023/10/22 05:36:21;;;;;;;;;2.00;1.00;;;;;14.77;100.00;100026.69;4997951;28;45465;-88
2023/10/22 05:38:50;;;;;;;;;2.00;2.00;;;;;14.65;100.00;100016.63;4999512;28;45804;-87
2023/10/22 05:41:26;;;;;;;;;5.67;3.33;;;;;14.81;100.00;100042.50;4985584;28;45389;-82
2023/10/22 05:44:00;;;;;;;;;2.00;1.00;;;;;14.85;100.00;100056.63;4993560;28;45535;-84
2023/10/22 05:46:30;;;;;;;;;1.33;0.33;;;;;14.88;100.00;100056.13;4970985;28;46499;-85
2023/10/22 05:48:56;;;;;;;;;4.67;2.33;;;;;14.87;100.00;100059.97;5000841;28;46048;-87
2023/10/22 05:51:46;;;;;;;;;2.00;2.00;;;;;14.88;100.00;100063.56;4977536;28;45792;-89
2023/10/22 05:54:17;;;;;;;;;5.33;1.00;;;;;14.78;100.00;100054.03;4989364;28;45476;-86
2023/10/22 05:56:46;;;;;;;;;2.67;1.00;;;;;14.86;100.00;100066.56;4976608;28;45813;-84
2023/10/22 05:59:15;;;;;;;;;4.00;2.00;;;;;14.75;100.00;100059.25;4999112;28;45952;-84
2023/10/22 06:01:41;;;;;;;;;2.33;1.33;;;;;14.48;100.00;100002.78;4985230;28;45882;-84
2023/10/22 06:05:13;;;;;;;;;;;;;;;;;;;;;
2023/10/22 06:07:52;;;;;;;;;2.00;1.00;;;;;14.73;100.00;100042.09;4979757;28;45759;-89
2023/10/22 06:10:49;;;;;;;;;;;;;;;;;;;;;
2023/10/22 06:13:39;;;;;;;;;2.33;1.67;;;;;14.97;100.00;100087.72;4976037;28;73350;-87
2023/10/22 06:23:12;;;;;;;;;55.33;44.33;;;;;14.91;100.00;100094.25;4886343;29;45610;-90
2023/10/22 06:26:14;;;;;;;;;;;;;;;;;;;;;
2023/10/22 06:28:41;;;;;;;;;7.67;7.67;;;;;15.00;100.00;100109.31;4988144;28;69863;-87
2023/10/22 06:31:55;;;;;;;;;;;;;;;;;;;;;
2023/10/22 06:34:52;;;;;;;;;14.00;11.00;;;;;15.02;100.00;100124.78;4986870;28;75686;-88
2023/10/22 06:37:52;;;;;;;;;2.00;2.00;;;;;15.05;100.00;100132.56;4995945;28;45800;-88
2023/10/22 06:40:25;;;;;;;;;5.00;3.33;;;;;14.94;100.00;100126.88;4971744;28;45853;-85
2023/10/22 06:42:55;;;;;;;;;8.67;7.67;;;;;15.07;100.00;100135.91;4978542;28;45745;-85
2023/10/22 06:45:24;;;;;;;;;10.00;7.67;;;;;15.12;100.00;100147.00;5002555;28;45588;-85
2023/10/22 06:48:00;;;;;;;;;27.00;21.67;;;;;15.03;100.00;100127.31;4995231;28;45780;-87
2023/10/22 06:50:55;;;;;;;;;43.00;36.67;;;;;15.01;100.00;100101.84;4979449;28;45563;-88
2023/10/22 06:53:20;;;;;;;;;44.67;37.67;;;;;14.90;100.00;100092.59;4993972;28;45943;-84
2023/10/22 06:56:27;;;;;;;;;53.00;42.50;;;;;15.27;100.00;100144.47;5001965;28;46923;-88
2023/10/22 06:58:52;;;;;;;;;33.67;31.00;;;;;15.04;100.00;100117.91;4974122;28;45658;-83
2023/10/22 07:01:18;;;;;;;;;20.33;16.00;;;;;15.20;100.00;100143.81;4975307;28;45702;-82
2023/10/22 07:03:45;;;;;;;;;19.33;16.33;;;;;15.26;100.00;100153.84;4973622;28;45609;-82
2023/10/22 07:06:11;;;;;;;;;11.67;10.67;;;;;15.37;100.00;100168.63;4970277;28;47989;-81
2023/10/22 07:08:36;;;;;;;;;16.33;15.00;;;;;15.35;100.00;100168.91;4993491;28;46008;-83
2023/10/22 07:11:03;;;;;;;;;5.00;4.00;;;;;15.34;100.00;100175.53;4967930;28;45511;-82
2023/10/22 07:13:29;;;;;;;;;6.33;4.00;;;;;15.45;100.00;100170.97;4980936;28;45822;-82
2023/10/22 07:16:13;;;;;;;;;4.33;2.33;;;;;15.47;100.00;100190.06;4985018;28;47050;-81
2023/10/22 07:18:39;;;;;;;;;3.00;2.00;;;;;15.26;100.00;100159.38;5001786;28;45559;-83
2023/10/22 07:21:04;;;;;;;;;2.00;2.00;;;;;15.40;100.00;100178.34;4988383;28;45714;-83
2023/10/22 07:23:31;;;;;;;;;3.00;2.00;;;;;15.32;100.00;100163.88;5001014;28;45296;-82
2023/10/22 07:25:57;;;;;;;;;3.00;2.00;;;;;15.42;100.00;100171.50;4971520;28;46964;-83
2023/10/22 07:28:23;;;;;;;;;2.00;1.00;;;;;15.51;100.00;100202.28;4969231;28;45792;-83
2023/10/22 07:30:49;;;;;;;;;4.00;0.67;;;;;15.64;100.00;100226.78;4961930;28;45043;-82
2023/10/22 07:33:18;;;;;;;;;1.00;1.00;;;;;15.57;100.00;100220.59;4974287;28;46025;-83
2023/10/22 07:35:54;;;;;;;;;2.00;2.00;;;;;15.52;100.00;100217.75;4990100;28;45648;-82
2023/10/22 07:38:20;;;;;;;;;3.00;3.00;;;;;15.36;100.00;100195.44;4971880;28;45190;-82
2023/10/22 07:40:47;;;;;;;;;1.67;0.67;;;;;15.50;100.00;100228.25;5007852;28;45765;-83
2023/10/22 07:43:13;;;;;;;;;1.00;1.00;;;;;15.39;100.00;100212.59;4984413;28;45832;-82
2023/10/22 07:45:42;;;;;;;;;1.00;1.00;;;;;15.36;100.00;100211.19;4972441;28;47116;-82
2023/10/22 07:48:08;;;;;;;;;1.67;1.33;;;;;15.33;100.00;100233.81;4972531;28;45771;-85
2023/10/22 07:50:34;;;;;;;;;2.33;2.33;;;;;15.51;100.00;100263.09;4974462;28;45675;-83
2023/10/22 07:53:04;;;;;;;;;2.67;1.00;;;;;15.51;100.00;100263.91;4977730;28;46291;-85
2023/10/22 07:55:37;;;;;;;;;2.00;2.00;;;;;15.43;100.00;100267.09;4981923;28;47482;-87
2023/10/22 07:58:03;;;;;;;;;3.00;1.67;;;;;15.54;100.00;100265.34;4990762;28;45560;-83
2023/10/22 08:00:28;;;;;;;;;3.00;1.00;;;;;15.45;100.00;100264.06;4987315;28;45440;-83
2023/10/22 08:02:54;;;;;;;;;5.00;2.33;;;;;15.36;100.00;100250.72;4971883;28;46205;-82
2023/10/22 08:05:19;;;;;;;;;4.33;1.67;;;;;15.25;100.00;100235.03;4994666;28;46310;-84
2023/10/22 08:07:45;;;;;;;;;1.67;1.67;;;;;15.53;100.00;100269.19;4981168;28;45770;-83
2023/10/22 08:10:10;;;;;;;;;4.00;4.00;;;;;15.53;100.00;100272.78;4963551;28;45504;-83
2023/10/22 08:12:36;;;;;;;;;2.00;1.00;;;;;15.50;100.00;100278.00;4990170;28;45562;-79
2023/10/22 08:15:01;;;;;;;;;4.00;2.00;;;;;15.52;100.00;100279.41;4981530;28;46473;-80
2023/10/22 08:17:28;;;;;;;;;2.00;2.00;;;;;15.43;100.00;100267.09;4980798;28;45917;-84
2023/10/22 08:19:53;;;;;;;;;2.67;2.67;;;;;15.50;100.00;100266.94;4975934;28;45577;-80
2023/10/22 08:22:19;;;;;;;;;7.67;5.67;;;;;15.61;100.00;100274.25;4987127;28;45705;-81
2023/10/22 08:24:49;;;;;;;;;1.00;1.00;;;;;15.67;100.00;100284.34;4984407;28;46930;-87
2023/10/22 08:27:16;;;;;;;;;5.00;2.00;;;;;15.80;100.00;100287.84;5008535;28;45776;-89
2023/10/22 08:29:41;;;;;;;;;2.33;1.00;;;;;15.65;100.00;100245.03;4977323;28;46031;-82
2023/10/22 08:32:07;;;;;;;;;7.67;3.00;;;;;15.84;100.00;100239.25;4974717;28;46184;-83
2023/10/22 08:34:32;;;;;;;;;2.00;0.33;;;;;16.26;100.00;100282.91;4996763;28;46369;-86
2023/10/22 08:36:58;;;;;;;;;1.33;1.00;;;;;16.25;100.00;100267.41;4994792;28;45468;-81
2023/10/22 08:39:28;;;;;;;;;2.00;2.00;;;;;16.51;100.00;100293.47;4998037;28;45796;-86
2023/10/22 08:42:00;;;;;;;;;3.33;3.33;;;;;16.57;100.00;100306.25;4995757;28;46078;-83
2023/10/22 08:44:30;;;;;;;;;4.00;2.00;;;;;16.32;100.00;100265.28;4992964;28;45712;-82
2023/10/22 08:46:56;;;;;;;;;3.67;2.67;;;;;16.50;100.00;100297.31;4973329;28;45790;-82
2023/10/22 08:49:22;;;;;;;;;8.00;6.00;;;;;16.47;100.00;100285.94;4995556;28;45471;-85
2023/10/22 08:51:48;;;;;;;;;4.00;2.00;;;;;16.67;100.00;100305.50;5002458;28;45527;-87
2023/10/22 08:54:13;;;;;;;;;9.33;2.00;;;;;16.79;100.00;100321.97;4989389;28;47024;-80
2023/10/22 08:56:41;;;;;;;;;4.33;2.00;;;;;16.74;100.00;100297.84;4998027;28;45553;-86
2023/10/22 08:59:08;;;;;;;;;7.33;5.33;;;;;16.84;100.00;100310.13;4981410;28;45437;-82
2023/10/22 09:01:36;;;;;;;;;1.67;1.67;;;;;17.00;100.00;100338.84;4966613;28;47344;-90
2023/10/22 09:04:05;;;;;;;;;1.67;1.00;;;;;16.77;100.00;100313.09;4994398;28;45768;-91
2023/10/22 09:06:47;;;;;;;;;4.00;3.00;;;;;16.50;100.00;100279.88;4976510;28;45436;-84
2023/10/22 09:20:43;;;;;;;;;3.00;3.00;;;;;17.68;100.00;100366.03;4852541;29;45195;-86
2023/10/22 09:23:22;;;;;;;;;4.00;4.00;;;;;17.65;100.00;100311.97;4998778;28;45036;-86
2023/10/22 09:26:58;;;;;;;;;2.00;2.00;;;;;19.08;100.00;100374.81;4974722;28;45393;-86
2023/10/22 09:30:18;;;;;;;;;2.00;1.00;;;;;19.47;100.00;100307.56;4916686;28;45817;-85
2023/10/22 10:09:04;;;;;;;;;1.00;1.00;;;;;20.68;100.00;100338.44;4720263;29;45507;-85
2023/10/22 10:12:00;;;;;;;;;1.25;0.50;;;;;21.48;100.00;100363.28;4723434;29;45678;-88
2023/10/22 10:15:00;;;;;;;;;0.75;0.75;;;;;22.31;100.00;100390.44;4776703;29;45750;-88
2023/10/22 10:18:01;;;;;;;;;1.50;1.50;;;;;22.54;100.00;100381.22;4797109;29;46127;-86
2023/10/22 10:20:52;;;;;;;;;;;;;;;;;;;;;
2023/10/22 10:24:22;;;;;;;;;;;;;;;;;;;;;
2023/10/22 10:26:52;;;;;;;;;1.00;1.00;;;;;23.37;100.00;100388.50;4876330;28;72407;-90
2023/10/22 10:29:46;;;;;;;;;1.75;0.75;;;;;23.76;100.00;100392.94;4909713;28;45578;-89
2023/10/22 10:32:48;;;;;;;;;;;;;;;;;;;;;
2023/10/22 10:35:52;;;;;;;;;2.50;2.50;;;;;24.01;100.00;100346.81;4979299;28;75224;-89
2023/10/22 10:38:22;;;;;;;;;2.75;1.75;;;;;24.34;100.00;100402.81;4986994;28;45432;-88
2023/10/22 10:40:54;;;;;;;;;3.00;1.00;;;;;23.85;100.00;100373.44;4964915;28;45591;-88
2023/10/22 10:43:21;;;;;;;;;1.00;1.00;;;;;24.12;100.00;100398.75;4978980;28;45447;-88
2023/10/22 10:46:28;;;;;;;;;1.25;1.25;;;;;24.24;100.00;100403.03;4991917;28;46251;-88
2023/10/22 10:48:55;;;;;;;;;2.50;1.50;;;;;24.07;100.00;100347.56;4969092;28;45410;-88
2023/10/22 10:51:25;;;;;;;;;3.00;2.00;;;;;24.15;100.00;100344.88;4960857;28;45411;-90
2023/10/22 10:54:30;;;;;;;;;0.75;0.75;;;;;24.28;100.00;100406.84;4984046;28;45500;-88
2023/10/22 10:56:57;;;;;;;;;1.75;1.75;;;;;23.91;99.59;100398.28;4971937;28;45424;-87
2023/10/22 10:59:39;;;;;;;;;3.00;0.50;;;;;23.78;100.00;100413.88;4960264;28;45721;-87
2023/10/22 11:02:13;;;;;;;;;2.00;2.00;;;;;23.52;99.61;100365.03;4963599;28;45920;-89
2023/10/22 11:04:49;;;;;;;;;1.00;1.00;;;;;23.70;97.97;100386.59;4984073;28;45433;-87
2023/10/22 11:07:15;;;;;;;;;1.75;1.75;;;;;23.63;96.79;100402.94;4972688;28;46242;-87
2023/10/22 11:09:40;;;;;;;;;3.50;1.75;;;;;23.78;98.49;100408.25;4974915;28;44840;-87
2023/10/22 11:12:08;;;;;;;;;1.00;1.00;;;;;23.23;96.27;100349.28;4999996;28;44807;-88
2023/10/22 11:15:03;;;;;;;;;1.00;1.00;;;;;23.21;96.78;100357.97;4985021;28;46139;-89
2023/10/22 11:17:57;;;;;;;;;1.25;1.25;;;;;23.13;93.89;100403.44;4971693;28;45539;-90
2023/10/22 11:20:27;;;;;;;;;5.25;3.25;;;;;22.60;94.89;100362.44;4975769;28;45148;-89
2023/10/22 11:23:20;;;;;;;;;2.25;1.00;;;;;22.14;94.67;100316.31;4981339;28;44904;-90
2023/10/22 11:25:50;;;;;;;;;2.25;1.25;;;;;22.36;95.02;100391.22;4981645;28;45445;-88
2023/10/22 11:28:38;;;;;;;;;1.25;1.25;;;;;22.00;97.26;100355.28;4987024;28;45589;-89
2023/10/22 11:31:06;;;;;;;;;1.00;1.00;;;;;22.22;97.60;100398.63;4980803;28;45870;-89
2023/10/22 11:33:33;;;;;;;;;1.00;1.00;;;;;21.89;96.38;100370.50;4986560;28;45574;-85
2023/10/22 11:36:17;;;;;;;;;1.50;1.00;;;;;21.81;98.57;100385.06;4980141;28;45274;-90
2023/10/22 11:38:43;;;;;;;;;1.00;1.00;;;;;21.42;95.22;100338.50;4972680;28;45844;-91
2023/10/22 11:41:10;;;;;;;;;2.00;1.00;;;;;21.72;97.08;100406.38;4967690;28;45793;-90
2023/10/22 11:43:44;;;;;;;;;2.00;1.00;;;;;21.39;98.25;100373.38;4965397;28;45435;-90
2023/10/22 11:46:13;;;;;;;;;0.75;0.75;;;;;21.29;99.47;100349.19;4989204;28;45444;-92
2023/10/22 11:48:46;;;;;;;;;1.00;1.00;;;;;21.28;98.69;100329.97;4989648;28;45437;-88
2023/10/22 11:51:18;;;;;;;;;1.00;1.00;;;;;21.69;96.83;100402.19;4979601;28;45511;-93
2023/10/22 11:53:59;;;;;;;;;;;;;;;;;;;;;
2023/10/22 11:56:32;;;;;;;;;2.00;1.00;;;;;21.57;96.13;100416.56;4978314;28;73264;-91
2023/10/22 11:59:00;;;;;;;;;3.75;2.00;;;;;20.95;95.61;100338.84;5004067;28;45581;-90
2023/10/22 12:01:33;;;;;;;;;1.75;1.75;;;;;20.92;95.02;100375.66;5011003;28;44733;-91
2023/10/22 12:04:05;;;;;;;;;4.00;0.00;;;;;21.11;97.34;100426.00;5014719;28;45812;-90
2023/10/22 12:06:34;;;;;;;;;2.25;1.25;;;;;21.09;96.81;100421.84;5014165;28;46090;-90
2023/10/22 12:09:08;;;;;;;;;1.00;1.00;;;;;20.89;96.75;100386.56;4981906;28;45614;-89
2023/10/22 12:11:37;;;;;;;;;3.75;2.25;;;;;20.62;95.75;100349.56;4984605;28;45278;-86
2023/10/22 12:14:10;;;;;;;;;4.00;4.00;;;;;20.97;95.99;100427.75;4982748;28;45446;-89
2023/10/22 12:16:37;;;;;;;;;1.25;1.25;;;;;20.66;96.22;100399.19;4970946;28;46051;-88
2023/10/22 12:19:08;;;;;;;;;3.25;2.00;;;;;20.71;98.92;100410.34;4996628;28;45961;-89
2023/10/22 12:21:38;;;;;;;;;0.25;0.25;;;;;20.62;98.43;100410.88;4991683;28;45879;-89
2023/10/22 12:24:06;;;;;;;;;3.00;1.00;;;;;20.73;97.53;100435.94;4987461;28;45348;-90
2023/10/22 12:26:36;;;;;;;;;2.67;1.33;;;;;20.70;99.20;100442.91;5008289;28;45519;-90
2023/10/22 12:29:06;;;;;;;;;1.25;0.25;;;;;20.63;98.90;100423.69;4993626;28;46861;-89
2023/10/22 12:31:34;;;;;;;;;3.50;0.50;;;;;20.27;99.32;100375.66;4973179;28;45522;-88
2023/10/22 12:34:03;;;;;;;;;2.00;1.00;;;;;20.45;99.87;100404.84;5001079;28;45477;-88
2023/10/22 12:36:32;;;;;;;;;1.00;0.75;;;;;20.22;100.00;100358.94;4997888;28;45535;-89
2023/10/22 12:39:10;;;;;;;;;1.50;1.25;;;;;20.61;99.03;100453.81;4987024;28;47275;-87
2023/10/22 12:41:38;;;;;;;;;1.00;1.00;;;;;20.45;99.10;100436.28;4972502;28;45698;-89
2023/10/22 12:44:26;;;;;;;;;3.00;1.50;;;;;20.55;99.67;100446.56;4982554;28;45529;-84
2023/10/22 12:47:22;;;;;;;;;1.00;1.00;;;;;20.07;98.77;100404.34;4959280;28;45515;-84
2023/10/22 12:49:52;;;;;;;;;4.50;1.00;;;;;20.09;98.99;100416.06;4981930;28;48041;-85
2023/10/22 12:52:19;;;;;;;;;3.25;0.50;;;;;20.30;97.58;100453.06;4976123;28;45543;-86
2023/10/22 12:54:51;;;;;;;;;2.75;1.00;;;;;20.22;98.49;100440.50;5012656;28;45305;-84